createdAt,value
2017-09-09T00:02:21.250Z,99.90
2017-09-09T00:04:48.866Z,99.90
2017-09-09T00:07:16.664Z,99.90
2017-09-09T00:09:44.324Z,99.90
2017-09-09T00:12:11.949Z,99.90
2017-09-09T00:14:39.671Z,99.90
2017-09-09T00:17:08.078Z,99.90
2017-09-09T00:19:35.731Z,99.90
2017-09-09T00:22:03.397Z,99.90
2017-09-09T00:24:31.069Z,99.90
2017-09-09T00:26:58.686Z,99.90
2017-09-09T00:29:26.422Z,99.90
2017-09-09T00:31:54.054Z,99.90
2017-09-09T00:34:21.743Z,99.90
2017-09-09T00:36:49.465Z,99.90
2017-09-09T00:39:17.105Z,99.90
2017-09-09T00:41:44.781Z,99.90
2017-09-09T00:44:12.556Z,99.90
2017-09-09T00:46:40.952Z,99.90
2017-09-09T00:49:08.622Z,99.90
2017-09-09T00:51:36.422Z,99.90
2017-09-09T00:54:04.911Z,99.90
2017-09-09T00:56:32.565Z,99.90
2017-09-09T00:59:00.453Z,99.90
2017-09-09T01:01:28.104Z,99.90
2017-09-09T01:03:55.752Z,99.90
2017-09-09T01:06:23.507Z,99.90
2017-09-09T01:08:51.899Z,99.90
2017-09-09T01:11:19.543Z,99.90
2017-09-09T01:13:47.209Z,99.90
2017-09-09T01:16:14.863Z,99.90
2017-09-09T01:18:43.247Z,99.90
2017-09-09T01:21:11.038Z,99.90
2017-09-09T01:23:38.709Z,99.90
2017-09-09T01:26:06.432Z,99.90
2017-09-09T01:28:34.172Z,99.90
2017-09-09T01:31:02.577Z,99.90
2017-09-09T01:33:30.217Z,99.90
2017-09-09T01:35:58.687Z,99.90
2017-09-09T01:38:27.095Z,99.90
2017-09-09T01:40:54.777Z,99.90
2017-09-09T01:43:22.455Z,99.90
2017-09-09T01:45:50.108Z,99.90
2017-09-09T01:48:17.743Z,99.90
2017-09-09T01:50:45.536Z,99.90
2017-09-09T01:53:13.236Z,99.90
2017-09-09T01:55:41.623Z,99.90
2017-09-09T01:58:10.069Z,99.90
2017-09-09T02:00:37.689Z,99.90
2017-09-09T02:03:05.319Z,99.90
2017-09-09T02:05:33.876Z,99.90
2017-09-09T02:08:01.508Z,99.90
2017-09-09T02:10:29.132Z,99.90
2017-09-09T02:12:56.803Z,99.90
2017-09-09T02:15:24.460Z,99.90
2017-09-09T02:17:52.103Z,99.90
2017-09-09T02:20:20.580Z,99.90
2017-09-09T02:22:48.196Z,99.90
2017-09-09T02:25:15.915Z,99.90
2017-09-09T02:27:43.581Z,99.90
2017-09-09T02:30:11.256Z,99.90
2017-09-09T02:32:38.876Z,99.90
2017-09-09T02:35:06.542Z,99.90
2017-09-09T02:37:34.933Z,99.90
2017-09-09T02:40:02.608Z,99.90
2017-09-09T02:42:30.283Z,99.90
2017-09-09T02:44:57.899Z,99.90
2017-09-09T02:47:26.412Z,99.90
2017-09-09T02:49:54.254Z,99.90
2017-09-09T02:52:21.877Z,99.90
2017-09-09T02:54:49.520Z,99.90
2017-09-09T02:57:17.233Z,99.90
2017-09-09T02:59:44.883Z,99.90
2017-09-09T03:02:13.305Z,99.90
2017-09-09T03:04:40.985Z,99.90
2017-09-09T03:07:08.630Z,99.90
2017-09-09T03:09:36.240Z,99.90
2017-09-09T03:12:03.911Z,99.90
2017-09-09T03:14:31.516Z,99.90
2017-09-09T03:16:59.172Z,99.90
2017-09-09T03:19:26.849Z,99.90
2017-09-09T03:21:54.519Z,99.90
2017-09-09T03:24:22.194Z,99.90
2017-09-09T03:26:50.706Z,99.90
2017-09-09T03:29:18.326Z,99.90
2017-09-09T03:31:46.011Z,99.90
2017-09-09T03:34:13.668Z,99.90
2017-09-09T03:36:42.077Z,99.90
2017-09-09T03:39:09.702Z,99.90
2017-09-09T03:41:37.376Z,99.90
2017-09-09T03:44:05.046Z,99.90
2017-09-09T03:46:32.656Z,99.90
2017-09-09T03:49:01.132Z,99.90
2017-09-09T03:51:28.776Z,99.90
2017-09-09T03:53:56.413Z,99.90
2017-09-09T03:56:24.096Z,99.90
2017-09-09T03:58:51.724Z,99.90
2017-09-09T04:01:19.335Z,99.90
2017-09-09T04:03:47.815Z,99.90
2017-09-09T04:06:15.475Z,99.90
2017-09-09T04:08:43.121Z,99.90
2017-09-09T04:11:10.806Z,99.90
2017-09-09T04:13:39.187Z,99.90
2017-09-09T04:16:07.564Z,99.90
2017-09-09T04:18:36.042Z,99.90
2017-09-09T04:21:04.428Z,99.90
2017-09-09T04:23:32.047Z,99.90
2017-09-09T04:25:59.783Z,99.90
2017-09-09T04:28:27.432Z,99.90
2017-09-09T04:30:55.048Z,99.90
2017-09-09T04:33:22.719Z,99.90
2017-09-09T04:35:51.099Z,99.90
2017-09-09T04:38:19.489Z,99.90
2017-09-09T04:40:48.009Z,99.90
2017-09-09T04:43:15.625Z,99.90
2017-09-09T04:45:44.023Z,99.90
2017-09-09T04:48:11.724Z,99.90
2017-09-09T04:50:39.364Z,99.90
2017-09-09T04:53:06.976Z,99.90
2017-09-09T04:55:34.647Z,99.90
2017-09-09T04:58:02.285Z,99.90
2017-09-09T05:00:29.906Z,99.90
2017-09-09T05:02:57.697Z,99.90
2017-09-09T05:05:25.325Z,99.90
2017-09-09T05:07:53.021Z,99.90
2017-09-09T05:10:20.702Z,99.90
2017-09-09T05:12:49.126Z,99.90
2017-09-09T05:15:16.744Z,99.90
2017-09-09T05:17:45.185Z,99.90
2017-09-09T05:20:12.812Z,99.90
2017-09-09T05:22:40.473Z,99.90
2017-09-09T05:25:08.208Z,99.90
2017-09-09T05:27:36.619Z,99.90
2017-09-09T05:30:04.247Z,99.90
2017-09-09T05:32:32.822Z,99.90
2017-09-09T05:35:00.499Z,99.90
2017-09-09T05:37:28.191Z,99.90
2017-09-09T05:39:56.020Z,99.90
2017-09-09T05:42:23.687Z,99.90
2017-09-09T05:44:51.328Z,99.90
2017-09-09T05:47:19.797Z,99.90
2017-09-09T05:49:48.229Z,99.90
2017-09-09T05:52:15.914Z,99.90
2017-09-09T05:54:43.692Z,99.90
2017-09-09T05:57:12.135Z,99.90
2017-09-09T05:59:39.778Z,99.90
2017-09-09T06:02:07.497Z,99.90
2017-09-09T06:04:35.879Z,99.90
2017-09-09T06:07:04.291Z,99.90
2017-09-09T06:09:31.972Z,99.90
2017-09-09T06:11:59.647Z,99.90
2017-09-09T06:14:27.276Z,99.90
2017-09-09T06:16:55.741Z,99.90
2017-09-09T06:19:23.357Z,99.90
2017-09-09T06:21:51.016Z,99.90
2017-09-09T06:24:18.698Z,99.90
2017-09-09T06:26:47.109Z,99.90
2017-09-09T06:29:14.730Z,99.90
2017-09-09T06:31:43.220Z,99.90
2017-09-09T06:34:11.707Z,99.90
2017-09-09T06:36:40.112Z,99.90
2017-09-09T06:39:07.820Z,99.90
2017-09-09T06:41:35.445Z,99.90
2017-09-09T06:44:03.091Z,99.90
2017-09-09T06:46:30.765Z,99.90
2017-09-09T06:48:58.399Z,99.90
2017-09-09T06:51:26.065Z,99.60
2017-09-09T06:53:53.768Z,98.40
2017-09-09T06:56:21.415Z,98.30
2017-09-09T06:58:49.016Z,99.60
2017-09-09T07:01:17.558Z,99.90
2017-09-09T07:03:45.166Z,99.90
2017-09-09T07:06:12.804Z,99.90
2017-09-09T07:08:41.280Z,99.90
2017-09-09T07:11:09.663Z,99.90
2017-09-09T07:13:38.084Z,99.90
2017-09-09T07:16:05.775Z,99.90
2017-09-09T07:18:33.394Z,99.90
2017-09-09T07:21:01.028Z,99.90
2017-09-09T07:23:30.277Z,99.90
2017-09-09T07:25:57.905Z,99.90
2017-09-09T07:28:25.599Z,99.90
2017-09-09T07:30:53.641Z,99.90
2017-09-09T07:33:21.288Z,99.90
2017-09-09T07:35:48.962Z,99.90
2017-09-09T07:38:16.656Z,99.90
2017-09-09T07:40:44.305Z,99.90
2017-09-09T07:43:11.938Z,99.50
2017-09-09T07:45:39.619Z,97.00
2017-09-09T07:48:07.244Z,95.70
2017-09-09T07:50:34.941Z,95.20
2017-09-09T07:53:02.625Z,92.80
2017-09-09T07:55:30.250Z,91.10
2017-09-09T07:57:57.904Z,91.70
2017-09-09T08:00:25.690Z,90.40
2017-09-09T08:02:53.324Z,88.70
2017-09-09T08:05:21.002Z,90.20
2017-09-09T08:07:48.704Z,90.10
2017-09-09T08:10:16.337Z,90.00
2017-09-09T08:12:44.008Z,90.20
2017-09-09T08:15:11.687Z,90.10
2017-09-09T08:17:39.355Z,90.30
2017-09-09T08:20:07.756Z,91.10
2017-09-09T08:22:35.460Z,91.10
2017-09-09T08:25:03.096Z,90.70
2017-09-09T08:27:30.724Z,90.70
2017-09-09T08:29:59.207Z,90.70
2017-09-09T08:32:27.691Z,90.80
2017-09-09T08:34:56.081Z,89.10
2017-09-09T08:37:23.787Z,89.00
2017-09-09T08:39:51.406Z,83.70
2017-09-09T08:42:19.125Z,83.00
2017-09-09T08:44:46.803Z,81.70
2017-09-09T08:47:15.537Z,77.90
2017-09-09T08:49:43.147Z,77.80
2017-09-09T08:52:11.615Z,77.70
2017-09-09T08:54:40.011Z,75.00
2017-09-09T08:57:07.672Z,75.00
2017-09-09T08:59:35.357Z,76.30
2017-09-09T09:02:03.008Z,74.20
2017-09-09T09:04:30.680Z,70.60
2017-09-09T09:06:58.455Z,72.80
2017-09-09T09:09:26.121Z,71.00
2017-09-09T09:11:53.913Z,69.00
2017-09-09T09:14:21.593Z,71.30
2017-09-09T09:16:49.199Z,71.50
2017-09-09T09:19:16.843Z,73.10
2017-09-09T09:21:44.497Z,73.90
2017-09-09T09:24:12.123Z,70.60
2017-09-09T09:26:41.234Z,72.00
2017-09-09T09:29:08.929Z,71.90
2017-09-09T09:31:36.554Z,71.50
2017-09-09T09:34:04.191Z,71.10
2017-09-09T09:36:31.868Z,69.90
2017-09-09T09:39:00.287Z,70.70
2017-09-09T09:41:27.894Z,70.70
2017-09-09T09:43:55.547Z,67.20
2017-09-09T09:46:23.158Z,66.30
2017-09-09T09:48:50.858Z,65.10
2017-09-09T09:51:18.511Z,63.20
2017-09-09T09:53:46.123Z,66.50
2017-09-09T09:56:13.819Z,64.90
2017-09-09T09:58:41.750Z,62.90
2017-09-09T10:01:09.355Z,63.50
2017-09-09T10:03:36.970Z,64.20
2017-09-09T10:06:04.769Z,64.50
2017-09-09T10:08:32.389Z,66.10
2017-09-09T10:11:00.084Z,64.60
2017-09-09T10:13:27.741Z,66.00
2017-09-09T10:15:55.342Z,64.60
2017-09-09T10:18:23.724Z,65.20
2017-09-09T10:20:52.270Z,66.80
2017-09-09T10:23:19.924Z,66.70
2017-09-09T10:25:48.235Z,66.90
2017-09-09T10:28:17.826Z,64.60
2017-09-09T10:30:45.467Z,64.50
2017-09-09T10:33:13.071Z,64.10
2017-09-09T10:35:41.506Z,66.40
2017-09-09T10:38:09.347Z,66.40
2017-09-09T10:40:36.956Z,65.90
2017-09-09T10:43:04.622Z,63.50
2017-09-09T10:45:32.452Z,66.40
2017-09-09T10:48:00.051Z,63.80
2017-09-09T10:50:28.504Z,62.10
2017-09-09T10:52:56.139Z,62.00
2017-09-09T10:55:23.743Z,61.50
2017-09-09T10:57:52.168Z,62.70
2017-09-09T11:00:19.782Z,62.60
2017-09-09T11:02:48.172Z,63.30
2017-09-09T11:05:15.872Z,63.00
2017-09-09T11:07:43.479Z,63.20
2017-09-09T11:10:11.096Z,65.00
2017-09-09T11:12:38.764Z,66.10
2017-09-09T11:15:06.432Z,65.80
2017-09-09T11:17:34.052Z,66.30
2017-09-09T11:20:02.076Z,64.60
2017-09-09T11:22:29.691Z,65.20
2017-09-09T11:24:57.352Z,61.20
2017-09-09T11:27:25.127Z,63.50
2017-09-09T11:29:52.732Z,64.10
2017-09-09T11:32:21.111Z,66.00
2017-09-09T11:34:49.563Z,65.90
2017-09-09T11:37:17.168Z,65.90
2017-09-09T11:39:44.803Z,65.70
2017-09-09T11:42:13.519Z,66.00
2017-09-09T11:44:41.155Z,66.00
2017-09-09T11:47:09.530Z,67.70
2017-09-09T11:49:37.992Z,69.00
2017-09-09T11:52:05.613Z,68.90
2017-09-09T11:54:33.240Z,69.30
2017-09-09T11:57:01.682Z,69.30
2017-09-09T11:59:29.292Z,69.30
2017-09-09T12:01:56.898Z,69.80
2017-09-09T12:04:24.638Z,70.50
2017-09-09T12:06:52.763Z,70.10
2017-09-09T12:09:20.452Z,71.60
2017-09-09T12:11:48.120Z,70.10
2017-09-09T12:14:15.786Z,71.40
2017-09-09T12:16:43.403Z,70.10
2017-09-09T12:19:12.535Z,69.70
2017-09-09T12:21:40.139Z,69.60
2017-09-09T12:24:08.523Z,70.10
2017-09-09T12:26:36.962Z,70.90
2017-09-09T12:29:04.862Z,70.70
2017-09-09T12:31:33.250Z,70.00
2017-09-09T12:34:01.677Z,70.90
2017-09-09T12:36:30.293Z,70.90
2017-09-09T12:38:57.932Z,71.10
2017-09-09T12:41:25.608Z,72.10
2017-09-09T12:43:53.224Z,72.30
2017-09-09T12:46:20.886Z,72.70
2017-09-09T12:48:48.575Z,72.30
2017-09-09T12:51:16.197Z,72.90
2017-09-09T12:53:43.835Z,71.30
2017-09-09T12:56:11.516Z,70.60
2017-09-09T12:58:39.181Z,70.70
2017-09-09T13:01:06.804Z,68.90
2017-09-09T13:03:35.248Z,70.40
2017-09-09T13:06:02.873Z,70.40
2017-09-09T13:08:30.597Z,71.10
2017-09-09T13:10:58.278Z,72.10
2017-09-09T13:13:25.924Z,71.40
2017-09-09T13:15:54.383Z,73.10
2017-09-09T13:18:22.160Z,73.10
2017-09-09T13:20:49.853Z,73.50
2017-09-09T13:23:17.514Z,73.70
2017-09-09T13:25:46.262Z,74.60
2017-09-09T13:28:13.967Z,75.20
2017-09-09T13:30:41.619Z,76.20
2017-09-09T13:33:09.405Z,77.10
2017-09-09T13:35:37.063Z,78.20
2017-09-09T13:38:04.707Z,79.80
2017-09-09T13:40:33.143Z,80.10
2017-09-09T13:43:01.960Z,80.50
2017-09-09T13:45:29.638Z,81.40
2017-09-09T13:47:57.373Z,81.90
2017-09-09T13:50:25.779Z,79.50
2017-09-09T13:52:53.445Z,79.50
2017-09-09T13:55:21.149Z,78.90
2017-09-09T13:57:48.852Z,79.60
2017-09-09T14:00:16.488Z,79.60
2017-09-09T14:02:44.193Z,80.20
2017-09-09T14:05:11.858Z,80.50
2017-09-09T14:07:39.481Z,80.70
2017-09-09T14:10:07.275Z,81.30
2017-09-09T14:12:34.897Z,81.10
2017-09-09T14:15:02.547Z,82.00
2017-09-09T14:17:30.216Z,82.80
2017-09-09T14:19:57.913Z,83.50
2017-09-09T14:22:25.670Z,83.60
2017-09-09T14:24:53.488Z,84.10
2017-09-09T14:27:21.912Z,85.20
2017-09-09T14:29:49.628Z,85.20
2017-09-09T14:32:18.045Z,86.90
2017-09-09T14:34:45.732Z,86.30
2017-09-09T14:37:13.379Z,86.80
2017-09-09T14:39:41.109Z,86.50
2017-09-09T14:42:08.736Z,86.80
2017-09-09T14:44:36.804Z,87.00
2017-09-09T14:47:04.549Z,88.20
2017-09-09T14:49:32.169Z,89.30
2017-09-09T14:51:59.800Z,89.10
2017-09-09T14:54:28.275Z,88.60
2017-09-09T14:56:55.911Z,88.50
2017-09-09T14:59:23.590Z,88.20
2017-09-09T15:01:51.383Z,87.40
2017-09-09T15:04:19.000Z,88.50
2017-09-09T15:06:46.655Z,87.50
2017-09-09T15:09:14.352Z,86.80
2017-09-09T15:11:42.740Z,89.00
2017-09-09T15:14:11.111Z,87.20
2017-09-09T15:16:39.564Z,87.30
2017-09-09T15:19:07.288Z,87.30
2017-09-09T15:21:34.959Z,87.00
2017-09-09T15:24:02.640Z,86.90
2017-09-09T15:26:30.308Z,86.40
2017-09-09T15:28:58.085Z,88.00
2017-09-09T15:31:25.829Z,87.80
2017-09-09T15:33:53.447Z,87.90
2017-09-09T15:36:21.153Z,89.20
2017-09-09T15:38:48.830Z,90.00
2017-09-09T15:41:17.301Z,91.10
2017-09-09T15:43:44.999Z,91.10
2017-09-09T15:46:12.716Z,91.70
2017-09-09T15:48:40.372Z,93.40
2017-09-09T15:51:08.114Z,93.70
2017-09-09T15:53:35.801Z,94.70
2017-09-09T15:56:03.419Z,94.80
2017-09-09T15:58:31.211Z,95.20
2017-09-09T16:00:58.920Z,95.30
2017-09-09T16:03:26.544Z,95.10
2017-09-09T16:05:54.982Z,95.70
2017-09-09T16:08:22.679Z,95.70
2017-09-09T16:10:50.299Z,96.00
2017-09-09T16:13:18.327Z,96.50
2017-09-09T16:15:46.375Z,96.00
2017-09-09T16:18:14.168Z,97.00
2017-09-09T16:20:42.623Z,97.50
2017-09-09T16:23:10.436Z,97.50
2017-09-09T16:25:38.273Z,97.90
2017-09-09T16:28:06.175Z,98.10
2017-09-09T16:30:34.044Z,98.80
2017-09-09T16:33:01.866Z,98.90
2017-09-09T16:35:30.416Z,99.90
2017-09-09T16:37:58.322Z,99.90
2017-09-09T16:40:26.076Z,99.50
2017-09-09T16:42:54.686Z,99.90
2017-09-09T16:45:22.573Z,99.90
2017-09-09T16:47:50.384Z,99.80
2017-09-09T16:50:19.079Z,99.90
2017-09-09T16:52:46.896Z,99.90
2017-09-09T16:55:15.453Z,99.90
2017-09-09T16:57:43.320Z,99.90
2017-09-09T17:00:11.252Z,99.90
2017-09-09T17:02:39.866Z,99.90
2017-09-09T17:05:07.719Z,99.90
2017-09-09T17:07:35.644Z,99.90
2017-09-09T17:10:04.149Z,99.90
2017-09-09T17:12:32.018Z,99.90
2017-09-09T17:14:59.841Z,99.90
2017-09-09T17:17:27.768Z,99.90
2017-09-09T17:19:55.715Z,99.90
2017-09-09T17:22:23.539Z,99.90
2017-09-09T17:24:51.251Z,99.90
2017-09-09T17:27:18.896Z,99.90
2017-09-09T17:29:46.602Z,99.90
2017-09-09T17:32:15.060Z,99.90
2017-09-09T17:34:43.616Z,99.90
2017-09-09T17:37:11.417Z,99.90
2017-09-09T17:39:39.886Z,99.90
2017-09-09T17:42:09.192Z,99.90
2017-09-09T17:44:37.814Z,99.90
2017-09-09T17:47:05.602Z,99.90
2017-09-09T17:49:34.154Z,99.90
2017-09-09T17:52:01.942Z,99.90
2017-09-09T17:54:29.721Z,99.90
2017-09-09T17:56:57.504Z,99.90
2017-09-09T17:59:25.440Z,99.90
2017-09-09T18:01:53.241Z,99.90
2017-09-09T18:04:20.939Z,99.90
2017-09-09T18:06:48.838Z,99.90
2017-09-09T18:09:16.569Z,99.90
2017-09-09T18:11:44.225Z,99.90
2017-09-09T18:14:11.940Z,99.90
2017-09-09T18:16:39.689Z,99.90
2017-09-09T18:19:07.312Z,99.90
2017-09-09T18:21:35.215Z,99.90
2017-09-09T18:24:02.927Z,99.90
2017-09-09T18:26:30.747Z,99.90
2017-09-09T18:28:58.532Z,99.90
2017-09-09T18:31:26.277Z,99.90
2017-09-09T18:33:54.057Z,99.90
2017-09-09T18:36:21.896Z,99.90
2017-09-09T18:38:49.735Z,99.90
2017-09-09T18:41:18.303Z,99.90
2017-09-09T18:43:46.920Z,99.90
2017-09-09T18:46:14.712Z,99.90
2017-09-09T18:48:43.488Z,99.90
2017-09-09T18:51:11.220Z,99.80
2017-09-09T18:53:39.000Z,99.90
2017-09-09T18:56:06.682Z,99.10
2017-09-09T18:58:34.467Z,99.90
2017-09-09T19:01:02.210Z,99.40
2017-09-09T19:03:29.974Z,99.30
2017-09-09T19:05:57.839Z,99.30
2017-09-09T19:08:25.637Z,99.40
2017-09-09T19:10:54.184Z,99.10
2017-09-09T19:13:21.973Z,99.10
2017-09-09T19:15:50.483Z,98.50
2017-09-09T19:18:18.908Z,98.90
2017-09-09T19:20:46.724Z,98.90
2017-09-09T19:23:15.167Z,98.90
2017-09-09T19:25:42.844Z,98.90
2017-09-09T19:28:10.607Z,99.20
2017-09-09T19:30:39.101Z,99.10
2017-09-09T19:33:07.604Z,98.90
2017-09-09T19:35:35.312Z,98.90
2017-09-09T19:38:02.988Z,98.40
2017-09-09T19:40:31.401Z,98.00
2017-09-09T19:42:59.285Z,97.90
2017-09-09T19:45:26.904Z,98.70
2017-09-09T19:47:54.648Z,98.30
2017-09-09T19:50:22.518Z,98.50
2017-09-09T19:52:50.449Z,98.60
2017-09-09T19:55:18.406Z,98.40
2017-09-09T19:57:46.232Z,98.30
2017-09-09T20:00:13.868Z,99.00
2017-09-09T20:02:41.515Z,99.30
2017-09-09T20:05:09.250Z,99.80
2017-09-09T20:07:36.868Z,99.90
2017-09-09T20:10:04.532Z,99.90
2017-09-09T20:12:32.209Z,99.90
2017-09-09T20:14:59.873Z,99.90
2017-09-09T20:17:27.533Z,99.90
2017-09-09T20:19:55.256Z,99.90
2017-09-09T20:22:23.264Z,99.90
2017-09-09T20:24:50.931Z,99.90
2017-09-09T20:27:18.692Z,99.90
2017-09-09T20:29:46.440Z,99.90
2017-09-09T20:32:14.268Z,99.90
2017-09-09T20:34:42.786Z,99.90
2017-09-09T20:37:10.560Z,99.90
2017-09-09T20:39:38.495Z,99.90
2017-09-09T20:42:07.326Z,99.90
2017-09-09T20:44:35.032Z,99.90
2017-09-09T20:47:02.776Z,99.90
2017-09-09T20:49:30.583Z,99.90
2017-09-09T20:51:58.420Z,99.90
2017-09-09T20:54:26.256Z,99.90
2017-09-09T20:56:54.364Z,99.90
2017-09-09T20:59:22.928Z,99.90
2017-09-09T21:01:55.264Z,99.90
2017-09-09T21:04:23.480Z,99.90
2017-09-09T21:06:52.272Z,99.90
2017-09-09T21:09:20.857Z,99.90
2017-09-09T21:11:49.754Z,99.90
2017-09-09T21:14:17.752Z,99.90
2017-09-09T21:16:45.864Z,99.90
2017-09-09T21:19:13.492Z,99.90
2017-09-09T21:21:41.182Z,99.90
2017-09-09T21:24:08.856Z,99.90
2017-09-09T21:26:37.285Z,99.90
2017-09-09T21:29:04.899Z,99.90
2017-09-09T21:31:33.386Z,99.90
2017-09-09T21:34:01.764Z,99.90
2017-09-09T21:36:30.215Z,99.90
2017-09-09T21:38:57.981Z,99.90
2017-09-09T21:41:25.597Z,99.90
2017-09-09T21:43:53.244Z,99.90
2017-09-09T21:46:20.986Z,99.90
2017-09-09T21:48:49.381Z,99.90
2017-09-09T21:51:17.047Z,99.90
2017-09-09T21:53:44.713Z,99.90
2017-09-09T21:56:12.348Z,99.90
2017-09-09T21:58:39.960Z,99.90
2017-09-09T22:01:07.715Z,99.90
2017-09-09T22:03:35.438Z,99.90
2017-09-09T22:06:03.061Z,99.90
2017-09-09T22:08:30.880Z,99.90
2017-09-09T22:10:58.499Z,99.90
2017-09-09T22:13:26.916Z,99.90
2017-09-09T22:15:54.634Z,99.90
2017-09-09T22:18:23.024Z,99.90
2017-09-09T22:20:51.459Z,99.90
2017-09-09T22:23:19.152Z,99.90
2017-09-09T22:25:46.793Z,99.90
2017-09-09T22:28:15.217Z,99.90
2017-09-09T22:30:43.142Z,99.90
2017-09-09T22:33:11.585Z,99.90
2017-09-09T22:35:39.840Z,99.90
2017-09-09T22:38:08.045Z,99.90
2017-09-09T22:40:36.044Z,99.90
2017-09-09T22:43:04.445Z,99.90
2017-09-09T22:45:32.197Z,99.90
2017-09-09T22:48:00.716Z,99.90
2017-09-09T22:50:28.340Z,99.90
2017-09-09T22:52:56.834Z,99.90
2017-09-09T22:55:24.461Z,99.90
2017-09-09T22:57:52.854Z,99.90
2017-09-09T23:00:21.356Z,99.90
2017-09-09T23:02:49.011Z,99.90
2017-09-09T23:05:16.620Z,99.90
2017-09-09T23:07:44.276Z,99.90
2017-09-09T23:10:11.945Z,99.90
2017-09-09T23:12:39.561Z,99.90
2017-09-09T23:15:07.250Z,99.90
2017-09-09T23:17:34.887Z,99.90
2017-09-09T23:20:02.588Z,99.90
2017-09-09T23:22:30.274Z,99.90
2017-09-09T23:24:58.704Z,99.90
2017-09-09T23:27:26.343Z,99.90
2017-09-09T23:29:54.084Z,99.90
2017-09-09T23:32:21.724Z,99.90
2017-09-09T23:34:50.156Z,99.90
2017-09-09T23:37:17.867Z,99.90
2017-09-09T23:39:46.297Z,99.90
2017-09-09T23:42:13.913Z,99.90
2017-09-09T23:44:41.726Z,99.90
2017-09-09T23:47:09.356Z,99.90
2017-09-09T23:49:37.028Z,99.90
2017-09-09T23:52:04.721Z,99.90
2017-09-09T23:54:32.368Z,99.90
2017-09-09T23:57:00.008Z,99.90
2017-09-09T23:59:27.773Z,99.90
